RVK weather

Rørvik Airport, Ryum
Rørvik, Nord-Trøndelag, Norway

Public forecast

Using degrees Celsius for public forecast. Weather courtesy of forecast.io.

METAR (pilot weather report)

Retrieved 2019/07/21 20:20 UTC (0 seconds ago):

ENRM 212020Z 14005KT 9999 -RA FEW007 SCT009 BKN048 16/16 Q1010

TAF (pilot weather forecast)

Closest forecast is Ørland Airport, 79.3 nm (146.9 km) SSW. Retrieved 2019/07/21 18:57 UTC (1 hour ago):

TAF ENOL 211700Z 2118/2218 25005KT 9999 -SHRA FEW015 BKN025 BECMG 2118/2120 BKN014 TEMPO 2118/2123 26015KT 2500 SHRA BR BKN008 SCT025CB BECMG 2122/2124 BKN020 PROB30 2200/2206 BKN010 BECMG 2205/2207 14010KT PROB40 2212/2218 36010KT